createdAt,value
2022-09-10T00:02:16.086Z,12.80
2022-09-10T00:04:43.203Z,12.80
2022-09-10T00:07:10.251Z,12.80
2022-09-10T00:09:38.501Z,12.70
2022-09-10T00:12:05.921Z,12.80
2022-09-10T00:14:32.935Z,12.70
2022-09-10T00:17:00.087Z,12.70
2022-09-10T00:19:28.558Z,12.70
2022-09-10T00:21:55.606Z,12.70
2022-09-10T00:24:22.858Z,12.60
2022-09-10T00:26:50.700Z,12.60
2022-09-10T00:29:18.551Z,12.60
2022-09-10T00:31:46.411Z,12.60
2022-09-10T00:34:14.270Z,12.70
2022-09-10T00:36:43.958Z,12.60
2022-09-10T00:39:15.017Z,12.60
2022-09-10T00:41:44.239Z,12.50
2022-09-10T00:44:41.947Z,12.60
2022-09-10T00:47:38.034Z,12.60
2022-09-10T00:50:07.553Z,12.60
2022-09-10T00:52:39.635Z,12.60
2022-09-10T00:55:07.915Z,12.50
2022-09-10T00:57:35.375Z,12.50
2022-09-10T01:00:08.744Z,12.50
2022-09-10T01:02:36.077Z,12.50
2022-09-10T01:05:06.065Z,12.50
2022-09-10T01:07:33.760Z,12.40
2022-09-10T01:10:08.293Z,12.40
2022-09-10T01:13:02.442Z,12.50
2022-09-10T01:15:53.693Z,12.50
2022-09-10T01:18:41.999Z,12.50
2022-09-10T01:21:30.185Z,13.00
2022-09-10T01:24:22.282Z,12.50
2022-09-10T01:27:11.039Z,12.50
2022-09-10T01:30:09.145Z,12.50
2022-09-10T01:32:52.778Z,12.50
2022-09-10T01:35:45.378Z,12.50
2022-09-10T01:38:20.601Z,12.60
2022-09-10T01:40:49.179Z,12.50
2022-09-10T01:43:20.609Z,12.60
2022-09-10T01:46:04.615Z,12.50
2022-09-10T01:49:18.855Z,12.60
2022-09-10T01:52:08.269Z,12.60
2022-09-10T01:54:56.459Z,12.50
2022-09-10T01:57:55.418Z,12.60
2022-09-10T02:00:27.027Z,12.60
2022-09-10T02:03:00.073Z,12.50
2022-09-10T02:05:35.215Z,12.50
2022-09-10T02:08:15.397Z,12.60
2022-09-10T02:10:59.267Z,12.60
2022-09-10T02:13:30.345Z,12.60
2022-09-10T02:16:33.702Z,13.20
2022-09-10T02:19:03.165Z,12.60
2022-09-10T02:21:32.098Z,12.60
2022-09-10T02:24:06.660Z,12.60
2022-09-10T02:26:38.182Z,12.50
2022-09-10T02:29:08.035Z,12.50
2022-09-10T02:31:35.900Z,12.50
2022-09-10T02:34:03.575Z,12.40
2022-09-10T02:36:31.919Z,12.60
2022-09-10T02:39:00.369Z,12.50
2022-09-10T02:41:30.176Z,12.50
2022-09-10T02:43:57.664Z,12.50
2022-09-10T02:46:24.974Z,12.50
2022-09-10T02:48:55.113Z,12.50
2022-09-10T02:51:24.335Z,12.50
2022-09-10T02:53:52.027Z,12.50
2022-09-10T02:56:20.557Z,12.50
2022-09-10T02:58:48.428Z,12.50
2022-09-10T03:01:20.802Z,12.50
2022-09-10T03:03:56.948Z,12.50
2022-09-10T03:06:25.689Z,12.50
2022-09-10T03:08:55.303Z,12.50
2022-09-10T03:11:27.410Z,12.40
2022-09-10T03:13:55.569Z,12.40
2022-09-10T03:16:24.261Z,12.50
2022-09-10T03:18:52.304Z,12.40
2022-09-10T03:21:21.772Z,12.50
2022-09-10T03:23:50.690Z,12.50
2022-09-10T03:26:25.440Z,12.50
2022-09-10T03:28:53.852Z,12.40
2022-09-10T03:31:23.333Z,12.50
2022-09-10T03:33:51.485Z,12.50
2022-09-10T03:36:20.965Z,12.50
2022-09-10T03:38:49.387Z,12.50
2022-09-10T03:41:16.618Z,13.40
2022-09-10T03:43:44.537Z,12.60
2022-09-10T03:46:14.832Z,12.60
2022-09-10T03:48:44.265Z,12.50
2022-09-10T03:51:11.912Z,12.60
2022-09-10T03:53:40.860Z,12.60
2022-09-10T03:56:11.156Z,12.60
2022-09-10T03:58:39.490Z,12.60
2022-09-10T04:01:08.687Z,12.50
2022-09-10T04:03:38.871Z,12.60
2022-09-10T04:06:10.395Z,12.60
2022-09-10T04:08:37.666Z,12.60
2022-09-10T04:11:07.769Z,12.50
2022-09-10T04:13:34.799Z,12.60
2022-09-10T04:16:02.545Z,12.60
2022-09-10T04:18:34.196Z,12.50
2022-09-10T04:21:02.642Z,12.70
2022-09-10T04:23:29.907Z,12.50
2022-09-10T04:25:57.326Z,12.60
2022-09-10T04:28:25.356Z,12.50
2022-09-10T04:30:52.946Z,12.50
2022-09-10T04:33:25.078Z,12.50
2022-09-10T04:35:52.996Z,12.60
2022-09-10T04:38:20.946Z,12.50
2022-09-10T04:40:49.218Z,12.50
2022-09-10T04:43:16.956Z,12.40
2022-09-10T04:45:44.306Z,12.50
2022-09-10T04:48:12.385Z,12.50
2022-09-10T04:50:54.067Z,12.50
2022-09-10T04:53:28.397Z,12.50
2022-09-10T04:55:57.492Z,12.60
2022-09-10T04:58:24.550Z,12.60
2022-09-10T05:00:52.173Z,12.60
2022-09-10T05:03:20.558Z,12.50
2022-09-10T05:05:48.626Z,12.50
2022-09-10T05:08:15.842Z,12.60
2022-09-10T05:10:50.335Z,12.50
2022-09-10T05:13:17.702Z,12.50
2022-09-10T05:15:46.103Z,12.50
2022-09-10T05:18:14.446Z,12.50
2022-09-10T05:20:44.879Z,12.50
2022-09-10T05:23:12.559Z,12.50
2022-09-10T05:25:40.334Z,12.60
2022-09-10T05:28:07.563Z,12.50
2022-09-10T05:30:34.730Z,12.50
2022-09-10T05:33:02.080Z,12.50
2022-09-10T05:35:32.049Z,12.50
2022-09-10T05:38:00.667Z,12.50
2022-09-10T05:40:29.237Z,12.50
2022-09-10T05:42:56.906Z,12.50
2022-09-10T05:45:24.452Z,12.50
2022-09-10T05:47:52.978Z,12.40
2022-09-10T05:50:23.284Z,12.40
2022-09-10T05:52:52.103Z,12.50
2022-09-10T05:55:19.213Z,12.50
2022-09-10T05:57:47.588Z,12.80
2022-09-10T06:00:17.843Z,12.60
2022-09-10T06:02:53.318Z,12.60
2022-09-10T06:05:55.805Z,12.60
2022-09-10T06:08:29.056Z,12.70
2022-09-10T06:10:57.761Z,12.70
2022-09-10T06:13:27.608Z,12.70
2022-09-10T06:15:56.096Z,12.70
2022-09-10T06:18:23.906Z,12.90
2022-09-10T06:21:28.481Z,12.70
2022-09-10T06:23:57.944Z,12.80
2022-09-10T06:26:27.706Z,12.90
2022-09-10T06:28:58.916Z,12.90
2022-09-10T06:31:29.488Z,12.90
2022-09-10T06:33:57.151Z,12.80
2022-09-10T06:36:29.330Z,12.80
2022-09-10T06:38:58.049Z,12.80
2022-09-10T06:41:27.055Z,12.80
2022-09-10T06:44:04.180Z,12.90
2022-09-10T06:49:31.484Z,13.00
2022-09-10T06:51:59.014Z,13.00
2022-09-10T06:54:26.916Z,13.10
2022-09-10T06:56:58.152Z,13.10
2022-09-10T06:59:25.794Z,13.10
2022-09-10T07:01:53.005Z,13.20
2022-09-10T07:04:21.938Z,13.10
2022-09-10T07:06:49.601Z,13.20
2022-09-10T07:09:17.478Z,13.40
2022-09-10T07:11:51.829Z,13.50
2022-09-10T07:14:19.390Z,13.90
2022-09-10T07:16:47.672Z,13.60
2022-09-10T07:19:17.477Z,13.50
2022-09-10T07:21:45.826Z,13.40
2022-09-10T07:24:15.475Z,13.40
2022-09-10T07:27:00.092Z,13.40
2022-09-10T07:29:29.747Z,13.40
2022-09-10T07:31:56.904Z,13.40
2022-09-10T07:34:25.317Z,13.40
2022-09-10T07:36:53.106Z,13.40
2022-09-10T07:39:25.716Z,13.40
2022-09-10T07:41:54.580Z,13.50
2022-09-10T07:44:26.230Z,13.70
2022-09-10T07:46:53.645Z,13.80
2022-09-10T07:49:21.207Z,14.00
2022-09-10T07:51:57.711Z,14.00
2022-09-10T07:54:28.937Z,14.10
2022-09-10T07:56:57.387Z,14.30
2022-09-10T07:59:24.674Z,14.50
2022-09-10T08:02:00.167Z,14.40
2022-09-10T08:04:36.571Z,14.40
2022-09-10T08:07:05.831Z,14.20
2022-09-10T08:09:35.270Z,14.20
2022-09-10T08:12:03.924Z,14.20
2022-09-10T08:14:31.710Z,14.30
2022-09-10T08:16:59.078Z,14.40
2022-09-10T08:19:26.098Z,14.30
2022-09-10T08:21:53.878Z,14.40
2022-09-10T08:24:28.217Z,14.30
2022-09-10T08:26:55.837Z,14.20
2022-09-10T08:29:23.252Z,14.30
2022-09-10T08:31:51.008Z,14.30
2022-09-10T08:34:24.051Z,14.40
2022-09-10T08:36:59.574Z,14.50
2022-09-10T08:39:27.526Z,14.60
2022-09-10T08:42:00.101Z,14.60
2022-09-10T08:44:59.983Z,14.60
2022-09-10T08:47:49.294Z,14.50
2022-09-10T08:51:01.642Z,14.40
2022-09-10T08:53:44.000Z,14.50
2022-09-10T08:56:21.473Z,14.40
2022-09-10T08:59:12.639Z,14.40
2022-09-10T09:01:50.691Z,14.30
2022-09-10T09:04:43.730Z,14.30
2022-09-10T09:07:19.751Z,14.30
2022-09-10T09:09:51.848Z,14.30
2022-09-10T09:12:50.203Z,14.30
2022-09-10T09:15:23.018Z,14.00
2022-09-10T09:17:56.871Z,14.00
2022-09-10T09:20:31.451Z,14.00
2022-09-10T09:23:14.875Z,13.70
2022-09-10T09:25:47.739Z,13.80
2022-09-10T09:28:40.946Z,13.80
2022-09-10T09:31:18.139Z,13.70
2022-09-10T09:33:49.047Z,13.80
2022-09-10T09:36:24.165Z,13.90
2022-09-10T09:38:51.562Z,14.20
2022-09-10T09:41:31.009Z,14.20
2022-09-10T09:44:11.910Z,14.30
2022-09-10T09:46:38.926Z,14.30
2022-09-10T09:49:15.839Z,14.30
2022-09-10T09:51:48.648Z,14.30
2022-09-10T09:54:56.932Z,14.20
2022-09-10T09:57:16.283Z,14.30
2022-09-10T09:59:43.608Z,14.50
2022-09-10T10:02:25.046Z,14.30
2022-09-10T10:05:05.227Z,14.50
2022-09-10T10:07:34.896Z,14.70
2022-09-10T10:10:09.825Z,14.80
2022-09-10T10:12:48.375Z,14.60
2022-09-10T10:15:42.569Z,14.60
2022-09-10T10:18:36.096Z,14.50
2022-09-10T10:21:30.531Z,14.60
2022-09-10T10:23:57.707Z,14.60
2022-09-10T10:26:35.675Z,14.60
2022-09-10T10:29:17.041Z,14.60
2022-09-10T10:31:47.134Z,14.60
2022-09-10T10:34:17.324Z,14.60
2022-09-10T10:36:44.367Z,14.60
2022-09-10T10:39:39.384Z,14.60
2022-09-10T10:42:35.842Z,14.70
2022-09-10T10:45:14.026Z,14.70
2022-09-10T10:47:51.977Z,14.60
2022-09-10T10:50:22.869Z,14.50
2022-09-10T10:53:02.312Z,14.40
2022-09-10T10:55:41.394Z,14.30
2022-09-10T10:58:13.200Z,14.20
2022-09-10T11:00:46.006Z,14.30
2022-09-10T11:03:30.184Z,14.40
2022-09-10T11:06:05.151Z,14.40
2022-09-10T11:08:43.104Z,14.20
2022-09-10T11:11:17.470Z,14.30
2022-09-10T11:13:44.484Z,14.20
2022-09-10T11:16:21.780Z,14.40
2022-09-10T11:19:02.677Z,14.20
2022-09-10T11:21:34.722Z,14.30
2022-09-10T11:24:04.109Z,14.50
2022-09-10T11:26:43.447Z,14.60
2022-09-10T11:29:41.482Z,14.60
2022-09-10T11:32:13.572Z,14.50
2022-09-10T11:34:55.355Z,14.50
2022-09-10T11:37:35.398Z,14.60
2022-09-10T11:40:12.405Z,14.50
2022-09-10T11:42:43.035Z,14.60
2022-09-10T11:45:23.062Z,14.50
2022-09-10T11:48:00.330Z,14.50
2022-09-10T11:50:36.053Z,14.50
2022-09-10T11:53:07.500Z,14.50
2022-09-10T11:56:05.282Z,14.70
2022-09-10T11:58:51.624Z,14.90
2022-09-10T12:01:37.359Z,14.90
2022-09-10T12:04:19.650Z,14.90
2022-09-10T12:07:04.487Z,14.80
2022-09-10T12:10:09.951Z,14.70
2022-09-10T12:12:46.369Z,14.80
2022-09-10T12:15:28.104Z,14.70
2022-09-10T12:18:00.660Z,14.60
2022-09-10T12:20:33.189Z,14.60
2022-09-10T12:23:00.747Z,14.60
2022-09-10T12:25:34.524Z,14.40
2022-09-10T12:28:08.033Z,14.50
2022-09-10T12:30:38.381Z,14.60
2022-09-10T12:33:17.551Z,14.60
2022-09-10T12:35:47.822Z,14.60
2022-09-10T12:38:53.070Z,14.60
2022-09-10T12:41:27.191Z,14.60
2022-09-10T12:43:58.575Z,14.60
2022-09-10T12:46:26.149Z,14.70
2022-09-10T12:48:56.230Z,14.90
2022-09-10T12:51:41.703Z,15.00
2022-09-10T12:54:27.057Z,15.10
2022-09-10T12:57:26.433Z,15.20
2022-09-10T13:00:03.190Z,15.30
2022-09-10T13:02:37.572Z,15.30
2022-09-10T13:05:18.816Z,15.10
2022-09-10T13:07:49.290Z,15.10
2022-09-10T13:10:27.664Z,15.00
2022-09-10T13:12:59.197Z,14.90
2022-09-10T13:15:35.541Z,14.90
2022-09-10T13:18:23.986Z,14.90
2022-09-10T13:20:51.496Z,14.90
2022-09-10T13:23:21.669Z,14.70
2022-09-10T13:25:50.494Z,14.70
2022-09-10T13:28:32.926Z,14.70
2022-09-10T13:31:05.427Z,14.70
2022-09-10T13:33:49.972Z,14.80
2022-09-10T13:36:23.104Z,14.80
2022-09-10T13:39:27.776Z,14.80
2022-09-10T13:42:13.923Z,14.80
2022-09-10T13:45:07.748Z,14.80
2022-09-10T13:47:42.706Z,14.80
2022-09-10T13:50:19.290Z,14.70
2022-09-10T13:52:49.278Z,14.70
2022-09-10T13:55:26.592Z,14.70
2022-09-10T13:58:01.045Z,14.70
2022-09-10T14:00:40.277Z,14.70
2022-09-10T14:03:22.505Z,14.70
2022-09-10T14:06:05.156Z,14.60
2022-09-10T14:08:39.384Z,14.60
2022-09-10T14:11:21.991Z,14.50
2022-09-10T14:14:06.251Z,14.50
2022-09-10T14:16:40.959Z,14.50
2022-09-10T14:19:25.690Z,14.50
2022-09-10T14:21:53.933Z,14.40
2022-09-10T14:24:33.544Z,14.30
2022-09-10T14:27:26.963Z,14.40
2022-09-10T14:30:23.033Z,14.20
2022-09-10T14:32:50.972Z,14.30
2022-09-10T14:35:40.097Z,14.30
2022-09-10T14:38:26.872Z,14.30
2022-09-10T14:41:22.191Z,14.30
2022-09-10T14:43:50.030Z,14.20
2022-09-10T14:46:46.219Z,14.00
2022-09-10T14:49:18.098Z,14.10
2022-09-10T14:51:45.777Z,14.10
2022-09-10T14:54:13.924Z,14.10
2022-09-10T14:56:46.351Z,14.10
2022-09-10T14:59:18.351Z,14.10
2022-09-10T15:01:48.414Z,14.10
2022-09-10T15:04:19.162Z,14.20
2022-09-10T15:06:46.141Z,14.10
2022-09-10T15:09:14.826Z,14.00
2022-09-10T15:11:58.975Z,14.10
2022-09-10T15:14:26.346Z,14.10
2022-09-10T15:16:54.146Z,14.00
2022-09-10T15:19:22.647Z,14.00
2022-09-10T15:21:50.313Z,14.00
2022-09-10T15:24:19.829Z,14.00
2022-09-10T15:26:47.770Z,14.00
2022-09-10T15:29:16.065Z,13.90
2022-09-10T15:31:43.784Z,13.90
2022-09-10T15:34:11.693Z,13.90
2022-09-10T15:36:39.943Z,14.00
2022-09-10T15:39:08.805Z,14.10
2022-09-10T15:41:40.676Z,14.10
2022-09-10T15:44:10.016Z,14.10
2022-09-10T15:46:42.094Z,14.10
2022-09-10T15:49:09.345Z,14.10
2022-09-10T15:51:36.297Z,14.10
2022-09-10T15:54:05.369Z,14.10
2022-09-10T15:56:33.084Z,14.10
2022-09-10T15:59:00.953Z,14.00
2022-09-10T16:01:29.006Z,14.00
2022-09-10T16:03:59.462Z,14.00
2022-09-10T16:06:31.198Z,14.00
2022-09-10T16:09:01.901Z,14.00
2022-09-10T16:11:31.450Z,13.90
2022-09-10T16:14:04.124Z,13.90
2022-09-10T16:16:32.267Z,13.90
2022-09-10T16:19:00.423Z,13.90
2022-09-10T16:21:33.662Z,13.90
2022-09-10T16:24:01.497Z,13.90
2022-09-10T16:26:34.637Z,13.80
2022-09-10T16:29:07.819Z,13.80
2022-09-10T16:31:37.245Z,13.70
2022-09-10T16:34:06.810Z,13.80
2022-09-10T16:36:37.046Z,13.80
2022-09-10T16:39:11.774Z,13.70
2022-09-10T16:41:39.874Z,13.70
2022-09-10T16:44:07.455Z,13.80
2022-09-10T16:46:35.500Z,13.70
2022-09-10T16:49:02.928Z,13.70
2022-09-10T16:51:30.098Z,13.70
2022-09-10T16:54:02.693Z,13.70
2022-09-10T16:56:34.382Z,13.70
2022-09-10T16:59:02.021Z,13.70
2022-09-10T17:01:29.557Z,13.50
2022-09-10T17:03:56.852Z,13.50
2022-09-10T17:06:29.251Z,13.50
2022-09-10T17:09:00.707Z,13.50
2022-09-10T17:11:31.472Z,13.50
2022-09-10T17:14:01.238Z,13.50
2022-09-10T17:16:37.727Z,13.60
2022-09-10T17:19:07.107Z,13.60
2022-09-10T17:21:36.876Z,13.60
2022-09-10T17:24:06.585Z,13.60
2022-09-10T17:26:34.965Z,13.60
2022-09-10T17:29:08.413Z,13.60
2022-09-10T17:31:36.147Z,13.50
2022-09-10T17:34:04.176Z,13.60
2022-09-10T17:36:32.392Z,13.50
2022-09-10T17:38:59.741Z,13.50
2022-09-10T17:41:28.154Z,13.50
2022-09-10T17:43:55.724Z,13.50
2022-09-10T17:46:24.125Z,13.50
2022-09-10T17:48:52.433Z,13.50
2022-09-10T17:51:25.263Z,13.40
2022-09-10T17:53:55.210Z,13.40
2022-09-10T17:56:24.261Z,13.40
2022-09-10T17:58:59.282Z,13.40
2022-09-10T18:01:29.131Z,13.40
2022-09-10T18:03:56.492Z,13.40
2022-09-10T18:06:29.323Z,13.40
2022-09-10T18:09:00.887Z,13.50
2022-09-10T18:11:31.331Z,13.50
2022-09-10T18:13:59.415Z,13.50
2022-09-10T18:16:29.351Z,13.50
2022-09-10T18:19:08.161Z,13.50
2022-09-10T18:21:38.614Z,13.50
2022-09-10T18:24:10.251Z,13.50
2022-09-10T18:26:41.062Z,13.50
2022-09-10T18:29:15.126Z,13.50
2022-09-10T18:31:44.884Z,13.50
2022-09-10T18:34:18.475Z,13.50
2022-09-10T18:36:54.430Z,13.70
2022-09-10T18:39:22.540Z,13.80
2022-09-10T18:41:49.982Z,13.50
2022-09-10T18:44:26.273Z,13.50
2022-09-10T18:46:54.183Z,13.50
2022-09-10T18:49:24.267Z,13.50
2022-09-10T18:51:52.295Z,13.50
2022-09-10T18:54:20.761Z,13.50
2022-09-10T18:56:49.475Z,13.50
2022-09-10T18:59:23.152Z,13.50
2022-09-10T19:01:52.549Z,13.50
2022-09-10T19:04:22.362Z,13.50
2022-09-10T19:06:54.211Z,13.50
2022-09-10T19:09:23.953Z,13.50
2022-09-10T19:11:55.380Z,13.50
2022-09-10T19:14:26.345Z,13.50
2022-09-10T19:16:54.973Z,13.50
2022-09-10T19:19:27.569Z,13.50
2022-09-10T19:22:03.642Z,13.50
2022-09-10T19:24:53.950Z,13.60
2022-09-10T19:27:18.539Z,13.50
2022-09-10T19:29:47.319Z,13.50
2022-09-10T19:32:15.215Z,13.50
2022-09-10T19:34:42.749Z,13.50
2022-09-10T19:37:09.841Z,13.50
2022-09-10T19:39:37.152Z,13.40
2022-09-10T19:42:05.741Z,13.50
2022-09-10T19:44:33.729Z,13.50
2022-09-10T19:47:04.073Z,13.50
2022-09-10T19:49:31.624Z,13.50
2022-09-10T19:51:58.871Z,13.50
2022-09-10T19:54:28.211Z,13.50
2022-09-10T19:56:56.241Z,13.50
2022-09-10T19:59:23.393Z,13.40
2022-09-10T20:01:50.494Z,13.50
2022-09-10T20:04:17.943Z,13.50
2022-09-10T20:06:47.595Z,13.40
2022-09-10T20:09:15.005Z,13.40
2022-09-10T20:11:42.348Z,13.40
2022-09-10T20:14:13.749Z,13.40
2022-09-10T20:16:43.647Z,13.40
2022-09-10T20:19:14.480Z,13.40
2022-09-10T20:21:42.233Z,13.40
2022-09-10T20:24:10.320Z,13.40
2022-09-10T20:26:39.120Z,13.40
2022-09-10T20:29:08.998Z,13.40
2022-09-10T20:31:36.951Z,13.40
2022-09-10T20:34:06.940Z,13.40
2022-09-10T20:36:35.701Z,13.40
2022-09-10T20:39:02.966Z,13.40
2022-09-10T20:41:30.760Z,13.40
2022-09-10T20:43:59.875Z,13.40
2022-09-10T20:46:29.376Z,13.40
2022-09-10T20:49:05.041Z,13.40
2022-09-10T20:51:36.367Z,13.40
2022-09-10T20:54:05.748Z,13.40
2022-09-10T20:56:33.285Z,13.30
2022-09-10T20:59:01.878Z,13.50
2022-09-10T21:01:33.157Z,13.30
2022-09-10T21:04:01.526Z,13.30
2022-09-10T21:06:31.429Z,13.40
2022-09-10T21:08:59.695Z,13.30
2022-09-10T21:11:29.341Z,13.30
2022-09-10T21:13:58.814Z,13.30
2022-09-10T21:16:31.403Z,13.30
2022-09-10T21:19:01.210Z,13.30
2022-09-10T21:21:30.795Z,13.30
2022-09-10T21:24:00.543Z,13.30
2022-09-10T21:26:33.658Z,13.30
2022-09-10T21:29:03.178Z,13.30
2022-09-10T21:31:31.268Z,13.30
2022-09-10T21:34:03.015Z,13.30
2022-09-10T21:36:32.312Z,13.30
2022-09-10T21:39:01.500Z,13.30
2022-09-10T21:41:37.356Z,13.30
2022-09-10T21:44:08.474Z,13.30
2022-09-10T21:46:36.300Z,13.30
2022-09-10T21:49:03.603Z,13.30
2022-09-10T21:51:30.919Z,13.30
2022-09-10T21:53:59.375Z,13.30
2022-09-10T21:56:29.485Z,13.20
2022-09-10T21:58:59.557Z,13.20
2022-09-10T22:01:28.976Z,13.20
2022-09-10T22:03:58.212Z,13.20
2022-09-10T22:06:30.078Z,13.20
2022-09-10T22:09:02.702Z,13.20
2022-09-10T22:11:33.258Z,13.20
2022-09-10T22:14:12.023Z,13.20
2022-09-10T22:16:39.725Z,13.20
2022-09-10T22:19:09.626Z,13.20
2022-09-10T22:21:38.318Z,13.20
2022-09-10T22:24:07.218Z,13.20
2022-09-10T22:26:35.174Z,13.20
2022-09-10T22:29:03.196Z,13.20
2022-09-10T22:31:33.329Z,13.20
2022-09-10T22:34:03.161Z,13.20
2022-09-10T22:36:35.585Z,13.20
2022-09-10T22:39:04.476Z,13.20
2022-09-10T22:41:34.167Z,13.20
2022-09-10T22:44:01.750Z,13.20
2022-09-10T22:46:31.003Z,13.20
2022-09-10T22:48:58.226Z,13.10
2022-09-10T22:51:31.608Z,13.20
2022-09-10T22:53:59.065Z,13.20
2022-09-10T22:56:27.732Z,13.20
2022-09-10T22:58:57.187Z,13.20
2022-09-10T23:01:27.742Z,13.20
2022-09-10T23:03:56.821Z,13.20
2022-09-10T23:06:25.339Z,13.20
2022-09-10T23:08:54.673Z,13.20
2022-09-10T23:11:27.894Z,13.20
2022-09-10T23:13:58.176Z,13.10
2022-09-10T23:16:54.438Z,13.20
2022-09-10T23:19:23.877Z,13.20
2022-09-10T23:21:53.281Z,13.20
2022-09-10T23:24:24.329Z,13.20
2022-09-10T23:26:52.231Z,13.20
2022-09-10T23:29:20.085Z,13.20
2022-09-10T23:31:47.979Z,13.20
2022-09-10T23:34:18.163Z,13.20
2022-09-10T23:36:47.509Z,13.20
2022-09-10T23:39:24.728Z,13.20
2022-09-10T23:41:54.616Z,13.20
2022-09-10T23:44:21.844Z,13.20
2022-09-10T23:46:49.027Z,13.20
2022-09-10T23:49:16.746Z,13.20
2022-09-10T23:51:43.944Z,13.20
2022-09-10T23:54:11.193Z,13.20
2022-09-10T23:56:39.844Z,13.20
2022-09-10T23:59:07.709Z,13.20
